Time;durP1;ratioP1;P1;durP2;ratioP2;P2;SDS_P1;SDS_P2;PMS_P1;PMS_P2;Temp;Humidity;BMP_temperature;BMP_pressure;BME280_temperature;BME280_humidity;BME280_pressure;Samples;Min_cycle;Max_cycle;Signal;HPM_P1;HPM_P2
2021/09/08 00:00:30;;;;;;;;;18.50;16.50;;;;;25.66;35.44;101070.19;5056540;28;45371;-54
2021/09/08 00:02:56;;;;;;;;;15.00;14.75;;;;;25.65;35.20;101070.28;5056941;28;45561;-54
2021/09/08 00:05:22;;;;;;;;;10.75;10.50;;;;;25.66;35.24;101064.03;5056804;28;45439;-53
2021/09/08 00:07:47;;;;;;;;;15.75;13.50;;;;;25.66;35.84;101061.38;5056658;28;45385;-54
2021/09/08 00:10:13;;;;;;;;;14.00;12.50;;;;;25.66;35.86;101064.88;5056689;28;45335;-55
2021/09/08 00:12:39;;;;;;;;;12.50;12.50;;;;;25.67;35.80;101058.63;5056867;28;45453;-54
2021/09/08 00:15:07;;;;;;;;;14.00;13.00;;;;;25.67;35.21;101055.97;5056538;28;46212;-54
2021/09/08 00:17:32;;;;;;;;;14.00;13.00;;;;;25.66;35.37;101053.41;5056344;28;45689;-54
2021/09/08 00:19:58;;;;;;;;;11.50;11.50;;;;;25.67;35.31;101055.09;5056686;28;45766;-54
2021/09/08 00:22:23;;;;;;;;;16.50;13.00;;;;;25.66;35.74;101051.59;5056966;28;45229;-55
2021/09/08 00:24:49;;;;;;;;;13.75;12.50;;;;;25.67;35.46;101041.81;5056353;28;45248;-54
2021/09/08 00:27:15;;;;;;;;;11.25;11.25;;;;;25.64;35.72;101034.94;5056506;28;45222;-53
2021/09/08 00:29:40;;;;;;;;;11.25;10.75;;;;;25.68;35.92;101038.22;5056383;28;45480;-56
2021/09/08 00:32:06;;;;;;;;;13.75;12.00;;;;;25.68;35.89;101030.25;5056730;28;45407;-54
2021/09/08 00:34:31;;;;;;;;;12.00;12.00;;;;;25.69;36.02;101029.28;5056239;28;45304;-54
2021/09/08 00:36:56;;;;;;;;;12.50;12.00;;;;;25.69;36.18;101032.78;5054698;28;45611;-55
2021/09/08 00:39:22;;;;;;;;;15.75;14.00;;;;;25.69;36.08;101023.97;5056803;28;45367;-54
2021/09/08 00:41:47;;;;;;;;;15.00;13.25;;;;;25.69;35.88;101018.66;5056527;28;45653;-54
2021/09/08 00:44:14;;;;;;;;;15.50;14.00;;;;;25.70;35.73;101015.06;5056017;28;45396;-55
2021/09/08 00:46:41;;;;;;;;;18.00;14.50;;;;;25.70;35.67;101017.72;5056128;28;45793;-55
2021/09/08 00:49:08;;;;;;;;;17.75;14.75;;;;;25.69;35.82;101008.06;5059021;28;45280;-55
2021/09/08 00:51:37;;;;;;;;;13.00;13.00;;;;;25.68;35.66;101011.66;5059878;28;45213;-55
2021/09/08 00:54:12;;;;;;;;;17.00;15.50;;;;;25.70;35.92;101012.41;5059418;28;46702;-55
2021/09/08 00:56:37;;;;;;;;;16.00;14.25;;;;;25.69;36.35;101008.88;5059334;28;45954;-54
2021/09/08 00:59:04;;;;;;;;;12.50;12.50;;;;;25.70;36.30;101017.72;5059553;28;45463;-54
2021/09/08 01:01:29;;;;;;;;;16.00;14.00;;;;;25.69;35.85;101002.75;5059780;28;45448;-54
2021/09/08 01:03:54;;;;;;;;;15.00;13.50;;;;;25.68;36.16;101009.00;5059724;28;46500;-54
2021/09/08 01:06:20;;;;;;;;;15.50;13.00;;;;;25.69;35.78;101008.06;5059342;28;45422;-54
2021/09/08 01:08:45;;;;;;;;;15.00;14.00;;;;;25.69;36.14;101005.41;5059472;28;45407;-54
2021/09/08 01:11:11;;;;;;;;;14.50;14.50;;;;;25.69;36.27;101005.41;5059685;28;45356;-54
2021/09/08 01:13:36;;;;;;;;;12.00;12.00;;;;;25.69;36.42;101005.41;5059159;28;45676;-54
2021/09/08 01:16:02;;;;;;;;;18.75;15.50;;;;;25.69;36.23;101000.94;5059372;28;45402;-56
2021/09/08 01:18:32;;;;;;;;;16.00;14.00;;;;;25.69;35.86;101002.75;5059380;28;45300;-55
2021/09/08 01:20:58;;;;;;;;;16.75;15.25;;;;;25.69;35.71;101000.09;5059761;28;45479;-55
2021/09/08 01:23:23;;;;;;;;;11.75;11.75;;;;;25.68;36.29;100996.59;5059792;28;45477;-56
2021/09/08 01:25:49;;;;;;;;;14.50;11.25;;;;;25.67;36.27;100992.25;5059151;28;45311;-55
2021/09/08 01:28:14;;;;;;;;;17.00;14.50;;;;;25.68;35.97;100993.09;5059308;28;45526;-55
2021/09/08 01:30:41;;;;;;;;;12.75;11.75;;;;;25.67;36.15;100991.38;5059353;28;45364;-55
2021/09/08 01:33:09;;;;;;;;;16.00;13.75;;;;;25.66;36.29;100987.91;5058859;28;46634;-54
2021/09/08 01:35:34;;;;;;;;;12.75;12.75;;;;;25.67;36.16;100986.94;5059084;28;45691;-54
2021/09/08 01:38:00;;;;;;;;;14.75;12.25;;;;;25.67;36.43;100986.09;5059122;28;45225;-54
2021/09/08 01:40:25;;;;;;;;;14.75;14.75;;;;;25.66;35.93;100985.25;5059641;28;45334;-55
2021/09/08 01:42:50;;;;;;;;;12.25;12.25;;;;;25.66;35.98;100981.72;5058889;28;45478;-54
2021/09/08 01:45:17;;;;;;;;;16.00;15.25;;;;;25.66;36.17;100979.06;5058917;28;45328;-55
2021/09/08 01:47:42;;;;;;;;;12.50;10.00;;;;;25.63;35.99;100981.00;5058955;28;45331;-56
2021/09/08 01:50:08;;;;;;;;;16.75;15.00;;;;;25.63;36.11;100982.81;5058831;28;45558;-54
2021/09/08 01:52:34;;;;;;;;;15.50;12.50;;;;;25.62;36.44;100984.63;5058730;28;47267;-55
2021/09/08 01:55:00;;;;;;;;;14.50;12.75;;;;;25.61;36.16;100980.28;5058805;28;45759;-55
2021/09/08 01:57:25;;;;;;;;;14.75;14.00;;;;;25.60;36.69;100970.63;5059129;28;45665;-55
2021/09/08 01:59:50;;;;;;;;;15.00;13.00;;;;;25.59;36.08;100968.94;5058655;28;45239;-55
2021/09/08 02:02:16;;;;;;;;;15.00;14.00;;;;;25.59;36.68;100966.28;5058575;28;45366;-55
2021/09/08 02:04:41;;;;;;;;;13.75;11.75;;;;;25.58;36.51;100961.06;5058466;28;45348;-54
2021/09/08 02:07:06;;;;;;;;;16.25;14.00;;;;;25.58;36.49;100956.63;5058844;28;45454;-55
2021/09/08 02:09:32;;;;;;;;;11.00;11.00;;;;;25.58;36.81;100958.41;5058856;28;45360;-56
2021/09/08 02:11:58;;;;;;;;;14.00;12.00;;;;;25.56;36.52;100953.22;5040548;28;47386;-55
2021/09/08 02:14:24;;;;;;;;;14.25;14.25;;;;;25.57;36.39;100949.63;5058425;28;45751;-56
2021/09/08 02:16:49;;;;;;;;;14.50;14.50;;;;;25.58;36.62;100946.00;5058485;28;45355;-55
2021/09/08 02:19:14;;;;;;;;;14.25;13.50;;;;;25.59;36.96;100945.06;5058588;28;45287;-55
2021/09/08 02:21:40;;;;;;;;;12.75;11.50;;;;;25.58;36.91;100940.69;5058232;28;45332;-55
2021/09/08 02:24:05;;;;;;;;;13.00;13.00;;;;;25.57;36.34;100946.97;5058312;28;45590;-55
2021/09/08 02:26:31;;;;;;;;;14.00;14.00;;;;;25.56;36.33;100934.66;5058617;28;45330;-54
2021/09/08 02:28:56;;;;;;;;;16.75;14.00;;;;;25.55;37.07;100938.28;5058884;28;45551;-55
2021/09/08 02:31:22;;;;;;;;;14.25;14.25;;;;;25.54;36.97;100935.75;5058136;28;46540;-55
2021/09/08 02:33:47;;;;;;;;;16.00;14.75;;;;;25.54;36.58;100938.41;5058004;28;45365;-55
2021/09/08 02:36:12;;;;;;;;;17.00;15.00;;;;;25.52;36.45;100932.34;5058030;28;45324;-54
2021/09/08 02:38:38;;;;;;;;;17.25;13.25;;;;;25.51;36.66;100926.22;5058175;28;45292;-56
2021/09/08 02:41:07;;;;;;;;;15.75;15.00;;;;;25.51;37.23;100922.69;5057898;28;46491;-55
2021/09/08 02:43:34;;;;;;;;;16.25;14.75;;;;;25.49;37.05;100917.50;5058086;28;45327;-55
2021/09/08 02:46:03;;;;;;;;;16.50;14.50;;;;;25.46;37.05;100915.94;5058375;28;45402;-55
2021/09/08 02:48:30;;;;;;;;;16.25;16.25;;;;;25.47;37.21;100916.78;5058456;28;45446;-55
2021/09/08 02:50:56;;;;;;;;;13.75;13.00;;;;;25.45;36.76;100916.91;5057759;28;46117;-56
2021/09/08 02:53:22;;;;;;;;;14.00;14.00;;;;;25.45;37.34;100914.25;5057793;28;45402;-55
2021/09/08 02:55:47;;;;;;;;;15.50;11.50;;;;;25.41;37.10;100904.00;5057920;28;45219;-56
2021/09/08 02:58:12;;;;;;;;;15.25;13.50;;;;;25.42;36.98;100909.16;5057984;28;45551;-56
2021/09/08 03:00:38;;;;;;;;;14.00;13.00;;;;;25.42;37.06;100903.88;5057352;28;46299;-55
2021/09/08 03:03:03;;;;;;;;;15.50;13.75;;;;;25.40;36.96;100904.91;5057577;28;45334;-55
2021/09/08 03:05:28;;;;;;;;;13.50;13.50;;;;;25.41;36.96;100904.81;5057960;28;45310;-56
2021/09/08 03:07:54;;;;;;;;;14.75;14.75;;;;;25.39;37.58;100898.75;5057804;28;45384;-55
2021/09/08 03:10:19;;;;;;;;;19.75;14.50;;;;;25.39;37.51;100895.25;5056614;28;46340;-56
2021/09/08 03:12:44;;;;;;;;;15.75;14.50;;;;;25.38;37.73;100888.25;5056463;28;45465;-56
2021/09/08 03:15:10;;;;;;;;;15.00;15.00;;;;;25.37;37.31;100889.22;5057565;28;45489;-56
2021/09/08 03:17:35;;;;;;;;;16.25;16.00;;;;;25.37;37.22;100883.91;5057560;28;45423;-56
2021/09/08 03:20:01;;;;;;;;;15.50;14.50;;;;;25.35;37.22;100885.84;5057559;28;46382;-55
2021/09/08 03:22:26;;;;;;;;;14.00;14.00;;;;;25.36;37.55;100883.06;5057266;28;45342;-56
2021/09/08 03:24:52;;;;;;;;;18.00;16.00;;;;;25.37;37.98;100886.56;5057437;28;45473;-55
2021/09/08 03:27:17;;;;;;;;;16.25;15.25;;;;;25.35;37.86;100883.19;5057428;28;45329;-56
2021/09/08 03:29:42;;;;;;;;;13.75;12.00;;;;;25.35;38.03;100881.38;5057160;28;45448;-56
2021/09/08 03:32:08;;;;;;;;;17.25;16.75;;;;;25.35;37.60;100880.53;5057097;28;45358;-56
2021/09/08 03:34:33;;;;;;;;;16.25;14.50;;;;;25.35;37.99;100876.09;5057592;28;45386;-56
2021/09/08 03:36:58;;;;;;;;;15.00;13.50;;;;;25.35;37.69;100864.59;5057724;28;45348;-56
2021/09/08 03:39:24;;;;;;;;;16.75;16.00;;;;;25.32;37.49;100865.69;5057072;28;46310;-56
2021/09/08 03:41:49;;;;;;;;;18.25;16.00;;;;;25.35;37.69;100869.91;5057114;28;45376;-55
2021/09/08 03:44:15;;;;;;;;;16.25;15.25;;;;;25.34;37.89;100866.44;5057132;28;45410;-56
2021/09/08 03:46:40;;;;;;;;;15.00;15.00;;;;;25.35;38.05;100860.16;5057444;28;45592;-56
2021/09/08 03:49:05;;;;;;;;;18.25;15.50;;;;;25.36;38.00;100853.88;5056949;28;46650;-55
2021/09/08 03:51:31;;;;;;;;;12.75;12.00;;;;;25.36;37.99;100855.69;5057384;28;45225;-56
2021/09/08 03:53:59;;;;;;;;;13.50;13.50;;;;;25.36;37.67;100845.06;5057087;28;45293;-59
2021/09/08 03:56:25;;;;;;;;;14.25;13.25;;;;;25.35;38.42;100838.94;5057250;28;46108;-55
2021/09/08 03:58:52;;;;;;;;;18.50;15.75;;;;;25.34;37.86;100836.38;5056716;28;47020;-54
2021/09/08 04:01:18;;;;;;;;;17.25;15.25;;;;;25.35;37.83;100840.72;5056675;28;46004;-54
2021/09/08 04:03:45;;;;;;;;;18.00;16.75;;;;;25.32;38.34;100837.34;5056825;28;45339;-55
2021/09/08 04:06:11;;;;;;;;;13.50;13.50;;;;;25.32;38.42;100840.00;5057005;28;45336;-54
2021/09/08 04:08:36;;;;;;;;;17.25;14.00;;;;;25.34;38.16;100841.69;5038443;28;46318;-54
2021/09/08 04:11:01;;;;;;;;;15.75;14.75;;;;;25.35;38.26;100840.72;5055639;28;46176;-55
2021/09/08 04:13:27;;;;;;;;;18.00;16.00;;;;;25.33;38.33;100832.91;5056819;28;45285;-53
2021/09/08 04:15:52;;;;;;;;;19.00;16.50;;;;;25.32;38.14;100832.03;5056702;28;45550;-55
2021/09/08 04:18:17;;;;;;;;;14.00;13.00;;;;;25.31;37.96;100825.03;5056348;28;46662;-55
2021/09/08 04:20:43;;;;;;;;;15.75;15.00;;;;;25.30;38.14;100826.00;5056497;28;45319;-55
2021/09/08 04:23:08;;;;;;;;;17.00;14.00;;;;;25.30;38.70;100831.31;5055358;28;45316;-55
2021/09/08 04:25:33;;;;;;;;;14.75;14.75;;;;;25.29;38.60;100834.94;5057066;28;45327;-56
2021/09/08 04:27:59;;;;;;;;;18.00;15.75;;;;;25.28;38.54;100827.94;5056347;28;46115;-55
2021/09/08 04:30:24;;;;;;;;;17.00;16.25;;;;;25.27;38.73;100825.41;5056227;28;45355;-56
2021/09/08 04:32:49;;;;;;;;;20.00;17.75;;;;;25.27;38.60;100825.41;5056414;28;45873;-56
2021/09/08 04:35:15;;;;;;;;;17.25;16.75;;;;;25.25;38.71;100820.22;5056723;28;45667;-55
2021/09/08 04:37:40;;;;;;;;;16.50;14.25;;;;;25.24;38.67;100820.34;5055903;28;47620;-56
2021/09/08 04:40:06;;;;;;;;;16.00;15.25;;;;;25.23;38.76;100819.47;5056555;28;45522;-56
2021/09/08 04:42:31;;;;;;;;;15.25;13.50;;;;;25.22;38.54;100820.44;5056310;28;45394;-56
2021/09/08 04:44:57;;;;;;;;;15.50;15.00;;;;;25.21;38.88;100821.41;5056328;28;45553;-56
2021/09/08 04:47:22;;;;;;;;;16.00;15.50;;;;;25.21;38.82;100826.69;5056017;28;45922;-55
2021/09/08 04:49:47;;;;;;;;;14.50;14.50;;;;;25.17;38.86;100814.66;5056111;28;45899;-55
2021/09/08 04:52:15;;;;;;;;;16.50;15.00;;;;;25.20;38.75;100821.53;5056334;28;45847;-55
2021/09/08 04:54:40;;;;;;;;;17.75;17.00;;;;;25.19;38.95;100825.97;5056169;28;45507;-55
2021/09/08 04:57:05;;;;;;;;;16.25;15.25;;;;;25.20;38.88;100824.19;5056078;28;46603;-55
2021/09/08 04:59:31;;;;;;;;;15.25;14.25;;;;;25.21;38.98;100824.06;5055639;28;45493;-55
2021/09/08 05:01:56;;;;;;;;;18.75;15.50;;;;;25.21;38.76;100829.34;5038008;28;45178;-55
2021/09/08 05:04:21;;;;;;;;;16.75;16.75;;;;;25.20;38.93;100825.00;5038117;28;45293;-55
2021/09/08 05:06:47;;;;;;;;;17.50;15.00;;;;;25.21;39.18;100820.56;5055941;28;45548;-53
2021/09/08 05:09:13;;;;;;;;;16.75;14.50;;;;;25.19;38.50;100820.66;5055823;28;45456;-55
2021/09/08 05:11:38;;;;;;;;;17.75;17.75;;;;;25.19;38.57;100812.72;5056251;28;45217;-56
2021/09/08 05:14:03;;;;;;;;;15.75;15.25;;;;;25.21;38.86;100825.88;5055954;28;45359;-53
2021/09/08 05:16:29;;;;;;;;;16.00;16.00;;;;;25.17;38.72;100812.00;5055764;28;46591;-55
2021/09/08 05:18:54;;;;;;;;;15.50;14.25;;;;;25.16;38.67;100820.91;5055566;28;45181;-55
2021/09/08 05:21:20;;;;;;;;;16.00;15.50;;;;;25.16;38.79;100818.25;5055700;28;45266;-55
2021/09/08 05:23:45;;;;;;;;;17.25;17.00;;;;;25.14;39.39;100813.06;5055637;28;45250;-55
2021/09/08 05:26:10;;;;;;;;;15.00;15.00;;;;;25.13;38.85;100824.66;5055528;28;45478;-55
2021/09/08 05:28:36;;;;;;;;;16.50;14.75;;;;;25.13;39.45;100821.13;5055649;28;45285;-56
2021/09/08 05:31:01;;;;;;;;;17.50;16.75;;;;;25.12;38.84;100816.78;5055519;28;45324;-54
2021/09/08 05:33:26;;;;;;;;;17.25;15.00;;;;;25.12;39.42;100815.00;5056128;28;45561;-55
2021/09/08 05:35:52;;;;;;;;;15.50;14.50;;;;;25.13;38.88;100813.19;5058683;28;46309;-55
2021/09/08 05:38:20;;;;;;;;;16.75;16.75;;;;;25.14;39.14;100812.22;5058672;28;45446;-55
2021/09/08 05:40:45;;;;;;;;;15.00;15.00;;;;;25.16;38.79;100812.97;5058999;28;45300;-56
2021/09/08 05:43:11;;;;;;;;;19.50;17.75;;;;;25.18;38.84;100813.69;5058897;28;45667;-57
2021/09/08 05:45:36;;;;;;;;;16.00;15.50;;;;;25.21;39.44;100815.25;5059129;28;46512;-56
2021/09/08 05:48:01;;;;;;;;;18.25;16.25;;;;;25.21;39.30;100809.97;5058796;28;45238;-55
2021/09/08 05:50:27;;;;;;;;;18.50;18.00;;;;;25.23;38.86;100808.88;5058768;28;45624;-55
2021/09/08 05:52:52;;;;;;;;;20.00;18.50;;;;;25.23;39.23;100808.88;5059029;28;45269;-55
2021/09/08 05:55:18;;;;;;;;;21.00;17.50;;;;;25.22;39.18;100809.81;5058562;28;47343;-56
2021/09/08 05:57:43;;;;;;;;;20.00;16.25;;;;;25.23;38.94;100813.34;5040484;28;45253;-57
2021/09/08 06:00:09;;;;;;;;;16.25;15.75;;;;;25.22;39.04;100806.34;5059049;28;45427;-55
2021/09/08 06:02:34;;;;;;;;;18.75;18.00;;;;;25.21;39.34;100809.97;5058948;28;45198;-57
2021/09/08 06:04:59;;;;;;;;;17.50;17.50;;;;;25.21;38.95;100810.78;5058614;28;46001;-57
2021/09/08 06:07:25;;;;;;;;;16.50;15.00;;;;;25.22;39.30;100816.94;5058761;28;45249;-56
2021/09/08 06:09:50;;;;;;;;;20.00;19.25;;;;;25.21;39.37;100805.47;5058560;28;45296;-57
2021/09/08 06:12:15;;;;;;;;;16.75;15.75;;;;;25.19;39.58;100804.75;5058653;28;45616;-56
2021/09/08 06:14:41;;;;;;;;;17.50;16.25;;;;;25.17;38.96;100796.09;5058650;28;45412;-57
2021/09/08 06:17:06;;;;;;;;;15.75;15.75;;;;;25.19;38.96;100802.09;5058318;28;45430;-54
2021/09/08 06:19:32;;;;;;;;;18.00;17.50;;;;;25.18;39.57;100808.38;5058561;28;45454;-55
2021/09/08 06:21:58;;;;;;;;;17.50;16.50;;;;;25.15;39.46;100801.50;5058530;28;45316;-55
2021/09/08 06:24:23;;;;;;;;;16.50;16.50;;;;;25.14;39.35;100798.97;5058060;28;46111;-55
2021/09/08 06:26:48;;;;;;;;;16.50;16.50;;;;;25.11;39.63;100796.53;5040244;28;45396;-56
2021/09/08 06:29:14;;;;;;;;;16.00;16.00;;;;;25.09;39.25;100806.41;5058070;28;46112;-55
2021/09/08 06:31:39;;;;;;;;;17.75;16.00;;;;;25.09;39.19;100806.41;5058738;28;45329;-55
2021/09/08 06:34:04;;;;;;;;;18.00;17.00;;;;;25.08;39.33;100808.22;5058002;28;46245;-55
2021/09/08 06:36:30;;;;;;;;;21.25;18.25;;;;;25.06;39.81;100806.66;5058029;28;45316;-55
2021/09/08 06:38:55;;;;;;;;;19.00;18.00;;;;;25.05;39.47;100799.66;5058040;28;45402;-55
2021/09/08 06:41:21;;;;;;;;;19.50;17.50;;;;;25.05;39.69;100807.63;5058317;28;45321;-55
2021/09/08 06:43:49;;;;;;;;;16.00;14.50;;;;;25.03;39.28;100794.47;5057822;28;46110;-55
2021/09/08 06:46:15;;;;;;;;;15.00;14.25;;;;;25.05;39.76;100794.38;5056758;28;45878;-55
2021/09/08 06:48:40;;;;;;;;;19.00;16.75;;;;;25.05;39.95;100783.75;5058255;28;45285;-55
2021/09/08 06:51:05;;;;;;;;;20.50;18.25;;;;;25.06;39.86;100780.97;5058227;28;45562;-54
2021/09/08 06:53:31;;;;;;;;;18.00;18.00;;;;;25.08;39.99;100794.13;5057720;28;46438;-56
2021/09/08 06:55:56;;;;;;;;;20.50;18.00;;;;;25.08;39.62;100796.78;5057576;28;45324;-56
2021/09/08 06:58:21;;;;;;;;;15.00;14.00;;;;;25.05;39.98;100791.72;5039786;28;46016;-56
2021/09/08 07:00:47;;;;;;;;;19.75;19.50;;;;;25.08;39.27;100788.84;5057682;28;45407;-55
2021/09/08 07:03:12;;;;;;;;;21.50;17.75;;;;;25.09;39.57;100780.75;5057971;28;46620;-56
2021/09/08 07:05:37;;;;;;;;;18.75;17.75;;;;;25.07;39.61;100784.50;5057655;28;45479;-54
2021/09/08 07:08:05;;;;;;;;;22.00;18.75;;;;;25.09;39.82;100782.53;5057711;28;45419;-54
2021/09/08 07:10:31;;;;;;;;;21.00;15.75;;;;;25.09;39.72;100786.06;5039801;28;45581;-55
2021/09/08 07:12:56;;;;;;;;;21.50;16.75;;;;;25.11;40.29;100777.97;5057478;28;46631;-55
2021/09/08 07:15:21;;;;;;;;;17.75;16.25;;;;;25.11;39.55;100772.66;5057533;28;45341;-54
2021/09/08 07:17:47;;;;;;;;;16.25;15.50;;;;;25.12;39.92;100774.38;5057532;28;45452;-55
2021/09/08 07:20:12;;;;;;;;;21.00;18.50;;;;;25.12;39.63;100769.91;5057950;28;45501;-56
2021/09/08 07:22:39;;;;;;;;;23.75;21.25;;;;;25.13;40.19;100773.41;5057354;28;45241;-56
2021/09/08 07:25:05;;;;;;;;;16.75;16.00;;;;;25.13;39.67;100765.44;5057242;28;45780;-55
2021/09/08 07:27:30;;;;;;;;;17.25;17.25;;;;;25.13;40.21;100770.75;5057335;28;45177;-55
2021/09/08 07:29:55;;;;;;;;;18.75;18.00;;;;;25.14;39.66;100777.75;5057587;28;45605;-54
2021/09/08 07:32:21;;;;;;;;;17.75;17.75;;;;;25.14;39.92;100773.28;5057042;28;46091;-55
2021/09/08 07:34:46;;;;;;;;;17.75;16.50;;;;;25.13;40.03;100776.91;5057090;28;45328;-55
2021/09/08 07:37:11;;;;;;;;;19.50;18.75;;;;;25.15;39.90;100766.19;5057518;28;45486;-55
2021/09/08 07:39:37;;;;;;;;;20.25;18.25;;;;;25.14;39.98;100759.19;5057585;28;45556;-55
2021/09/08 07:42:03;;;;;;;;;20.00;19.75;;;;;25.15;39.78;100752.91;5056935;28;45423;-55
2021/09/08 07:44:28;;;;;;;;;17.50;17.50;;;;;25.16;40.33;100762.56;5057209;28;45324;-56
2021/09/08 07:46:54;;;;;;;;;19.25;17.50;;;;;25.16;40.41;100760.75;5039049;28;45781;-55
2021/09/08 07:49:19;;;;;;;;;23.50;18.00;;;;;25.17;39.82;100761.59;5057089;28;45537;-55
2021/09/08 07:51:45;;;;;;;;;18.75;18.75;;;;;25.17;39.84;100756.31;5057024;28;45438;-55
2021/09/08 07:54:11;;;;;;;;;16.50;16.50;;;;;25.18;40.39;100758.00;5056925;28;45458;-54
2021/09/08 07:56:36;;;;;;;;;19.00;16.75;;;;;25.19;40.54;100754.34;5056609;28;45420;-55
2021/09/08 07:59:01;;;;;;;;;22.50;21.25;;;;;25.18;40.22;100758.00;5056851;28;45636;-55
2021/09/08 08:01:29;;;;;;;;;21.00;19.75;;;;;25.23;40.23;100757.66;5056834;28;46824;-55
2021/09/08 08:03:55;;;;;;;;;17.00;16.50;;;;;25.23;40.39;100758.47;5055385;28;45310;-54
2021/09/08 08:06:20;;;;;;;;;21.50;17.50;;;;;25.23;40.65;100753.16;5056867;28;45282;-55
2021/09/08 08:08:46;;;;;;;;;21.00;18.75;;;;;25.25;40.11;100748.59;5057403;28;45509;-56
2021/09/08 08:11:11;;;;;;;;;24.00;20.75;;;;;25.23;40.24;100753.16;5056414;28;46278;-55
2021/09/08 08:13:36;;;;;;;;;19.75;19.75;;;;;25.27;40.14;100751.97;5056646;28;45436;-55
2021/09/08 08:16:02;;;;;;;;;20.00;19.25;;;;;25.29;40.47;100751.84;5056706;28;45332;-54
2021/09/08 08:18:27;;;;;;;;;18.50;17.75;;;;;25.30;40.08;100758.84;5056617;28;45620;-55
2021/09/08 08:20:52;;;;;;;;;18.75;16.50;;;;;25.29;40.68;100765.97;5056214;28;47221;-54
2021/09/08 08:23:18;;;;;;;;;21.00;20.00;;;;;25.32;40.69;100756.94;5056309;28;45433;-55
2021/09/08 08:25:43;;;;;;;;;19.50;18.25;;;;;25.31;40.01;100757.88;5056592;28;45306;-54
2021/09/08 08:28:08;;;;;;;;;17.00;16.50;;;;;25.31;40.86;100753.41;5056733;28;45441;-55
2021/09/08 08:30:35;;;;;;;;;19.75;17.25;;;;;25.32;40.47;100754.28;5056217;28;45427;-55
2021/09/08 08:33:01;;;;;;;;;19.50;18.50;;;;;25.32;40.67;100747.16;5056384;28;45844;-55
2021/09/08 08:35:27;;;;;;;;;22.00;20.50;;;;;25.34;40.71;100744.41;5056560;28;45263;-55
2021/09/08 08:37:52;;;;;;;;;22.50;20.25;;;;;25.35;40.67;100750.53;5056494;28;45384;-54
2021/09/08 08:40:20;;;;;;;;;20.50;19.00;;;;;25.34;40.95;100736.44;5056267;28;46286;-55
2021/09/08 08:42:46;;;;;;;;;19.75;18.75;;;;;25.36;41.07;100741.63;5056626;28;45387;-55
2021/09/08 08:45:13;;;;;;;;;18.25;15.00;;;;;25.37;40.55;100740.66;5056259;28;45386;-55
2021/09/08 08:47:39;;;;;;;;;17.25;17.25;;;;;25.37;40.86;100740.66;5038799;28;45400;-55
2021/09/08 08:50:09;;;;;;;;;16.50;16.50;;;;;25.37;40.98;100732.69;5055955;28;46489;-54
2021/09/08 08:52:35;;;;;;;;;19.25;17.25;;;;;25.38;40.47;100729.06;5056192;28;45341;-55
2021/09/08 08:55:00;;;;;;;;;22.00;19.50;;;;;25.39;40.71;100725.47;5056271;28;45414;-55
2021/09/08 08:57:27;;;;;;;;;17.25;16.25;;;;;25.40;40.91;100727.16;5056271;28;45229;-55
2021/09/08 08:59:53;;;;;;;;;17.00;16.50;;;;;25.41;40.99;100720.91;5055695;28;47161;-56
2021/09/08 09:02:24;;;;;;;;;20.75;20.00;;;;;25.44;41.13;100720.66;5056085;28;45403;-55
2021/09/08 09:04:51;;;;;;;;;20.00;18.50;;;;;25.44;41.17;100721.53;5056287;28;45268;-55
2021/09/08 09:07:31;;;;;;;;;22.00;21.00;;;;;25.46;41.20;100713.44;5056415;28;45490;-55
2021/09/08 09:10:06;;;;;;;;;17.75;17.75;;;;;25.47;41.22;100717.78;5058432;28;45691;-55
2021/09/08 09:12:34;;;;;;;;;22.00;20.25;;;;;25.46;41.09;100716.09;5059276;28;45849;-55
2021/09/08 09:15:08;;;;;;;;;21.25;20.75;;;;;25.47;40.81;100709.81;5059622;28;45340;-55
2021/09/08 09:17:36;;;;;;;;;19.75;19.75;;;;;25.49;41.70;100701.72;5059651;28;45331;-54
2021/09/08 09:20:06;;;;;;;;;22.00;21.00;;;;;25.50;41.52;100701.63;5059124;28;46244;-55
2021/09/08 09:22:43;;;;;;;;;20.50;19.25;;;;;25.50;41.11;100698.97;5059406;28;45241;-54
2021/09/08 09:25:12;;;;;;;;;19.00;16.50;;;;;25.52;41.35;100693.53;5059413;28;45338;-54
2021/09/08 09:27:43;;;;;;;;;16.75;15.75;;;;;25.54;41.05;100696.91;5059529;28;45496;-55
2021/09/08 09:30:11;;;;;;;;;20.00;18.75;;;;;25.55;41.04;100695.94;5058986;28;46577;-54
2021/09/08 09:32:43;;;;;;;;;24.75;21.00;;;;;25.55;41.73;100696.78;5059124;28;45403;-55
2021/09/08 09:35:13;;;;;;;;;18.50;17.50;;;;;25.56;41.71;100703.78;5059264;28;45400;-55
2021/09/08 09:37:47;;;;;;;;;22.00;19.50;;;;;25.58;41.46;100701.00;5059283;28;45390;-55
2021/09/08 09:40:14;;;;;;;;;20.75;19.00;;;;;25.58;41.50;100707.16;5059121;28;45301;-55
2021/09/08 09:42:44;;;;;;;;;20.50;19.25;;;;;25.58;41.20;100696.53;5058829;28;45915;-55
2021/09/08 09:45:12;;;;;;;;;19.00;18.25;;;;;25.60;41.37;100688.44;5057724;28;45343;-55
2021/09/08 09:47:40;;;;;;;;;20.25;19.50;;;;;25.62;41.42;100692.69;5058051;28;45513;-55
2021/09/08 09:50:09;;;;;;;;;18.50;17.25;;;;;25.63;41.25;100698.81;5058412;28;45583;-55
2021/09/08 09:52:35;;;;;;;;;17.75;17.75;;;;;25.64;41.16;100695.22;5058681;28;45381;-53
2021/09/08 09:55:03;;;;;;;;;24.00;20.00;;;;;25.64;41.92;100695.22;5058999;28;45466;-55
2021/09/08 09:57:29;;;;;;;;;19.25;19.25;;;;;25.66;41.75;100689.78;5058773;28;45630;-55
2021/09/08 09:59:57;;;;;;;;;16.75;15.00;;;;;25.66;41.42;100692.44;5058192;28;47343;-54
2021/09/08 10:02:22;;;;;;;;;19.00;18.00;;;;;25.68;42.12;100690.50;5058960;28;45410;-54
2021/09/08 10:04:49;;;;;;;;;20.00;20.00;;;;;25.68;41.77;100688.69;5059066;28;45351;-55
2021/09/08 10:07:18;;;;;;;;;21.75;18.75;;;;;25.69;42.02;100689.53;5058945;28;45557;-55
2021/09/08 10:09:49;;;;;;;;;19.75;17.25;;;;;25.69;41.77;100686.88;5057297;28;47261;-56
2021/09/08 10:12:17;;;;;;;;;17.50;15.75;;;;;25.71;42.00;100690.25;5058622;28;45817;-55
2021/09/08 10:14:44;;;;;;;;;19.00;18.50;;;;;25.72;41.90;100694.59;5058501;28;45483;-54
2021/09/08 10:17:10;;;;;;;;;21.00;18.25;;;;;25.72;41.67;100697.25;5058677;28;45403;-54
2021/09/08 10:19:39;;;;;;;;;24.00;22.50;;;;;25.74;42.20;100690.03;5058181;28;46488;-54
2021/09/08 10:22:09;;;;;;;;;21.25;19.25;;;;;25.74;41.81;100684.72;5058284;28;45281;-55
2021/09/08 10:24:35;;;;;;;;;21.50;19.25;;;;;25.74;41.59;100671.44;5040283;28;45320;-56
2021/09/08 10:27:01;;;;;;;;;20.25;19.00;;;;;25.73;42.07;100675.88;5057267;28;45578;-56
2021/09/08 10:29:28;;;;;;;;;21.00;20.75;;;;;25.75;41.70;100686.38;5058171;28;45225;-56
2021/09/08 10:31:57;;;;;;;;;21.50;20.50;;;;;25.75;42.36;100678.41;5058440;28;45702;-55
2021/09/08 10:34:23;;;;;;;;;22.00;20.25;;;;;25.76;41.75;100673.00;5058595;28;45336;-55
2021/09/08 10:36:49;;;;;;;;;20.50;19.75;;;;;25.78;42.11;100664.91;5058384;28;45494;-55
2021/09/08 10:39:17;;;;;;;;;19.00;19.00;;;;;25.79;42.34;100666.59;5057967;28;45445;-56
2021/09/08 10:41:42;;;;;;;;;18.50;17.75;;;;;25.80;42.17;100670.09;5058044;28;45255;-56
2021/09/08 10:44:08;;;;;;;;;20.00;18.75;;;;;25.79;41.82;100661.28;5058128;28;45247;-55
2021/09/08 10:46:52;;;;;;;;;25.50;21.75;;;;;25.80;42.49;100657.66;5058250;28;45451;-55
2021/09/08 10:49:36;;;;;;;;;21.00;20.00;;;;;25.82;41.90;100662.84;5057820;28;46513;-55
2021/09/08 10:52:05;;;;;;;;;22.25;19.50;;;;;25.82;42.40;100654.88;5057947;28;45356;-55
2021/09/08 10:54:31;;;;;;;;;17.50;14.75;;;;;25.82;42.05;100663.69;5058167;28;45337;-55
2021/09/08 10:56:56;;;;;;;;;19.50;16.50;;;;;25.83;42.01;100660.06;5058084;28;45443;-55
2021/09/08 10:59:22;;;;;;;;;19.75;19.75;;;;;25.84;42.05;100664.41;5057706;28;45449;-55
2021/09/08 11:01:52;;;;;;;;;24.25;20.75;;;;;25.86;42.34;100656.31;5057779;28;45429;-56
2021/09/08 11:04:18;;;;;;;;;22.75;19.75;;;;;25.86;42.63;100645.69;5057814;28;45217;-55